Ceredo, West Virginia
Current Conditions -  °F | °C
As of 12:51 PM on Wednesday 28 Jan 2015 (Local Time) from KHTS Reporting Station
Clear Clear  
Wind Chill: 22°   Ceiling: Unl
Heat Index: 28°   Visibility: 10mi
Dew Point: 16°   Wind: 6mph
Humidity: 61%   Direction: 100°E
Pressure: 30.36"   Gusts: NA
Location:  38.4°N, 82.56°W
Report Text: KHTS 281751Z 10005KT 10SM CLR M02/M09 A3036 RMK AO2 SLP289 T10221089 11017 21100 58009
Loading
Personal Weather Stations






























Interactive Weather Map New forecast layout! Learn more

10-Day Weather Forecast

Advertisements
Track Severe Weather on mobile